createdAt,value
2023-04-01T00:03:28.444Z,41.7
2023-04-01T00:09:34.118Z,41.8
2023-04-01T00:15:39.467Z,41.8
2023-04-01T00:21:45.067Z,41.8
2023-04-01T00:27:50.813Z,41.8
2023-04-01T00:33:56.389Z,41.8
2023-04-01T00:40:02.044Z,41.8
2023-04-01T00:46:07.396Z,41.9
2023-04-01T00:52:13.117Z,41.8
2023-04-01T00:58:18.693Z,41.9
2023-04-01T01:04:24.267Z,42
2023-04-01T01:10:29.427Z,41.9
2023-04-01T01:16:35.511Z,41.9
2023-04-01T01:22:40.987Z,41.9
2023-04-01T01:28:46.360Z,42
2023-04-01T01:34:51.506Z,42
2023-04-01T01:40:57.120Z,42
2023-04-01T01:47:02.659Z,42
2023-04-01T01:53:07.861Z,42.1
2023-04-01T01:59:13.795Z,42.1
2023-04-01T02:05:19.175Z,42.1
2023-04-01T02:11:24.572Z,42.1
2023-04-01T02:17:29.934Z,42.1
2023-04-01T02:23:35.582Z,42.1
2023-04-01T02:29:41.095Z,42.1
2023-04-01T02:35:47.239Z,42.2
2023-04-01T02:41:52.655Z,42.2
2023-04-01T02:47:58.279Z,42.2
2023-04-01T02:54:04.173Z,42.1
2023-04-01T03:00:09.611Z,42.2
2023-04-01T03:06:15.161Z,42.2
2023-04-01T03:12:20.950Z,42.2
2023-04-01T03:18:26.724Z,42.2
2023-04-01T03:24:32.073Z,42.1
2023-04-01T03:30:37.241Z,42.2
2023-04-01T03:36:42.834Z,42.2
2023-04-01T03:42:48.624Z,42.2
2023-04-01T03:48:54.776Z,42.2
2023-04-01T03:54:59.927Z,42.2
2023-04-01T04:01:05.332Z,42.2
2023-04-01T04:07:10.875Z,42.2
2023-04-01T04:13:16.449Z,42.1
2023-04-01T04:19:22.040Z,42.1
2023-04-01T04:25:27.725Z,42.1
2023-04-01T04:31:33.223Z,42.2
2023-04-01T04:37:38.869Z,42.2
2023-04-01T04:43:44.531Z,42.1
2023-04-01T04:49:50.083Z,42.1
2023-04-01T04:55:55.548Z,42.1
2023-04-01T05:02:00.643Z,42.2
2023-04-01T05:08:06.195Z,42.2
2023-04-01T05:14:11.900Z,42.2
2023-04-01T05:20:17.537Z,42.1
2023-04-01T05:26:22.695Z,42.1
2023-04-01T05:32:28.246Z,42
2023-04-01T05:38:33.850Z,41.9
2023-04-01T05:44:39.620Z,41.8
2023-04-01T05:50:45.208Z,41.5
2023-04-01T05:56:52.175Z,41
2023-04-01T06:02:58.373Z,40.6
2023-04-01T06:09:04.311Z,40.5
2023-04-01T06:15:10.319Z,40.5
2023-04-01T06:21:16.288Z,40.4
2023-04-01T06:27:21.915Z,40.4
2023-04-01T06:33:27.230Z,40.4
2023-04-01T06:39:33.007Z,40.5
2023-04-01T06:45:39.006Z,40.5
2023-04-01T06:51:44.759Z,40.3
2023-04-01T06:57:50.338Z,40.2
2023-04-01T07:03:56.155Z,40.2
2023-04-01T07:10:02.512Z,40.4
2023-04-01T07:16:08.276Z,40.3
2023-04-01T07:22:14.056Z,40.2
2023-04-01T07:28:20.052Z,40.3
2023-04-01T07:34:26.021Z,40.3
2023-04-01T07:40:31.212Z,40.4
2023-04-01T07:46:37.183Z,40.3
2023-04-01T07:52:42.794Z,40.3
2023-04-01T07:58:48.515Z,40.1
2023-04-01T08:04:54.952Z,40.2
2023-04-01T08:11:00.681Z,40.3
2023-04-01T08:17:06.880Z,40.3
2023-04-01T08:23:12.479Z,40.1
2023-04-01T08:29:18.636Z,39.8
2023-04-01T08:35:24.626Z,39.8
2023-04-01T08:41:30.789Z,40.1
2023-04-01T08:47:36.810Z,40.1
2023-04-01T08:53:42.570Z,40.2
2023-04-01T08:59:48.347Z,40.1
2023-04-01T09:05:53.559Z,39.6
2023-04-01T09:11:59.305Z,39.8
2023-04-01T09:18:05.174Z,39.9
2023-04-01T09:24:10.922Z,39.5
2023-04-01T09:30:16.410Z,39.6
2023-04-01T09:36:22.050Z,39.9
2023-04-01T09:42:28.048Z,39.8
2023-04-01T09:48:33.197Z,39.6
2023-04-01T09:54:39.002Z,39.5
2023-04-01T10:00:44.531Z,39.5
2023-04-01T10:06:50.106Z,39.4
2023-04-01T10:12:55.493Z,39.7
2023-04-01T10:19:00.408Z,39.9
2023-04-01T10:25:09.416Z,39.8
2023-04-01T10:31:14.836Z,39.6
2023-04-01T10:37:20.358Z,39.5
2023-04-01T10:43:25.815Z,39.7
2023-04-01T10:49:31.923Z,39.6
2023-04-01T10:55:37.711Z,39.6
2023-04-01T11:01:43.389Z,39.5
2023-04-01T11:08:05.184Z,39.4
2023-04-01T11:14:12.437Z,39.2
2023-04-01T11:20:18.222Z,39.3
2023-04-01T11:26:23.796Z,39.2
2023-04-01T11:32:29.582Z,39.3
2023-04-01T11:38:35.538Z,39.3
2023-04-01T11:44:40.601Z,39.4
2023-04-01T11:50:46.641Z,39.7
2023-04-01T11:56:51.614Z,39.4
2023-04-01T12:02:57.572Z,39.5
2023-04-01T12:09:03.311Z,39.8
2023-04-01T12:15:08.532Z,39.7
2023-04-01T12:21:13.887Z,39.8
2023-04-01T12:27:19.899Z,39.8
2023-04-01T12:33:25.468Z,40
2023-04-01T12:39:31.362Z,40.1
2023-04-01T12:45:37.709Z,40.1
2023-04-01T12:51:43.132Z,40.2
2023-04-01T12:57:48.174Z,40.2
2023-04-01T13:03:53.544Z,40.2
2023-04-01T13:09:59.447Z,40.4
2023-04-01T13:16:05.310Z,40.4
2023-04-01T13:22:11.389Z,40.5
2023-04-01T13:28:16.981Z,40.4
2023-04-01T13:34:22.146Z,40.3
2023-04-01T13:40:27.353Z,40.3
2023-04-01T13:46:32.887Z,40.3
2023-04-01T13:52:37.830Z,40.3
2023-04-01T13:58:43.605Z,40.3
2023-04-01T14:04:49.052Z,40.1
2023-04-01T14:10:54.757Z,40.3
2023-04-01T14:17:00.837Z,40.2
2023-04-01T14:23:06.312Z,40.4
2023-04-01T14:29:12.304Z,40.4
2023-04-01T14:35:17.923Z,40.2
2023-04-01T14:41:23.447Z,40.2
2023-04-01T14:47:29.429Z,40.3
2023-04-01T14:53:35.404Z,40.3
2023-04-01T14:59:41.163Z,40.4
2023-04-01T15:05:47.159Z,40.4
2023-04-01T15:11:53.150Z,40.5
2023-04-01T15:17:59.227Z,40.3
2023-04-01T15:24:05.320Z,40.3
2023-04-01T15:30:11.969Z,40.4
2023-04-01T15:36:17.748Z,40.3
2023-04-01T15:42:23.742Z,40.6
2023-04-01T15:48:29.328Z,40.5
2023-04-01T15:54:35.043Z,40.4
2023-04-01T16:00:40.789Z,40.6
2023-04-01T16:06:46.631Z,40.5
2023-04-01T16:12:51.396Z,40.5
2023-04-01T16:18:57.307Z,40.5
2023-04-01T16:25:03.568Z,40.5
2023-04-01T16:31:09.078Z,40.6
2023-04-01T16:37:14.658Z,40.5
2023-04-01T16:43:20.632Z,40.5
2023-04-01T16:49:26.384Z,40.6
2023-04-01T16:55:32.068Z,40.7
2023-04-01T17:01:38.201Z,40.5
2023-04-01T17:07:43.951Z,40.7
2023-04-01T17:13:50.117Z,40.7
2023-04-01T17:19:56.578Z,40.7
2023-04-01T17:26:02.716Z,40.6
2023-04-01T17:32:08.715Z,40.7
2023-04-01T17:38:14.721Z,40.7
2023-04-01T17:44:20.633Z,40.6
2023-04-01T17:50:26.441Z,40.7
2023-04-01T17:56:32.405Z,40.7
2023-04-01T18:02:38.338Z,40.6
2023-04-01T18:08:44.370Z,40.7
2023-04-01T18:14:50.417Z,40.6
2023-04-01T18:20:55.995Z,40.7
2023-04-01T18:27:01.800Z,40.7
2023-04-01T18:33:07.727Z,40.6
2023-04-01T18:39:13.046Z,40.6
2023-04-01T18:45:18.888Z,40.6
2023-04-01T18:51:24.212Z,40.6
2023-04-01T18:57:29.654Z,40.6
2023-04-01T19:03:35.660Z,40.7
2023-04-01T19:09:41.739Z,40.7
2023-04-01T19:15:47.351Z,40.7
2023-04-01T19:21:53.298Z,40.7
2023-04-01T19:27:58.870Z,40.7
2023-04-01T19:34:04.849Z,40.7
2023-04-01T19:40:10.650Z,40.7
2023-04-01T19:46:16.426Z,40.7
2023-04-01T19:52:22.386Z,40.7
2023-04-01T19:58:28.147Z,40.7
2023-04-01T20:04:33.956Z,40.7
2023-04-01T20:10:39.104Z,40.7
2023-04-01T20:16:44.707Z,40.8
2023-04-01T20:22:49.869Z,40.8
2023-04-01T20:28:54.632Z,40.7
2023-04-01T20:34:59.993Z,40.8
2023-04-01T20:41:05.188Z,40.8
2023-04-01T20:47:10.734Z,40.8
2023-04-01T20:53:16.673Z,40.8
2023-04-01T20:59:22.735Z,40.8
2023-04-01T21:05:28.495Z,40.8
2023-04-01T21:11:33.851Z,40.7
2023-04-01T21:17:39.807Z,40.7
2023-04-01T21:23:45.151Z,40.8
2023-04-01T21:29:51.000Z,40.8
2023-04-01T21:35:56.523Z,40.7
2023-04-01T21:42:02.489Z,40.7
2023-04-01T21:48:08.267Z,40.7
2023-04-01T21:54:14.252Z,40.8
2023-04-01T22:00:19.195Z,40.8
2023-04-01T22:06:24.986Z,40.8
2023-04-01T22:12:30.968Z,40.8
2023-04-01T22:18:36.187Z,40.8
2023-04-01T22:24:41.933Z,40.8
2023-04-01T22:30:47.880Z,40.8
2023-04-01T22:36:52.906Z,40.8
2023-04-01T22:42:58.901Z,40.8
2023-04-01T22:49:05.419Z,40.8
2023-04-01T22:55:11.054Z,40.8
2023-04-01T23:01:16.030Z,40.8
2023-04-01T23:07:21.979Z,40.8
2023-04-01T23:13:27.352Z,40.9
2023-04-01T23:19:32.682Z,40.9
2023-04-01T23:25:38.643Z,40.9
2023-04-01T23:31:44.062Z,40.9
2023-04-01T23:37:49.628Z,40.9
2023-04-01T23:43:54.974Z,41
2023-04-01T23:50:01.813Z,41
2023-04-01T23:56:08.341Z,41
